Time;durP1;ratioP1;P1;durP2;ratioP2;P2;SDS_P1;SDS_P2;PMS_P1;PMS_P2;Temp;Humidity;BMP_temperature;BMP_pressure;BME280_temperature;BME280_humidity;BME280_pressure;Samples;Min_cycle;Max_cycle;Signal;HPM_P1;HPM_P2
2024/01/29 00:02:22;;;;;;;5.43;2.35;;;3.50;91.90;;;;;;5051103;28;20041;-79
2024/01/29 00:04:48;;;;;;;4.70;2.15;;;3.40;92.20;;;;;;5049362;28;20369;-79
2024/01/29 00:07:13;;;;;;;6.47;2.58;;;3.20;92.30;;;;;;5049791;28;20135;-79
2024/01/29 00:09:39;;;;;;;5.43;2.58;;;3.30;92.40;;;;;;5050481;28;20076;-79
2024/01/29 00:12:05;;;;;;;5.25;2.65;;;3.40;92.10;;;;;;5050468;28;20075;-79
2024/01/29 00:14:31;;;;;;;4.25;1.95;;;3.40;92.10;;;;;;5052953;28;20035;-79
2024/01/29 00:16:58;;;;;;;4.25;2.03;;;3.60;91.90;;;;;;5055427;28;20025;-79
2024/01/29 00:19:23;;;;;;;6.38;2.55;;;3.60;91.90;;;;;;5056028;28;20043;-79
2024/01/29 00:21:50;;;;;;;6.50;2.30;;;3.30;92.40;;;;;;5054850;28;20437;-79
2024/01/29 00:24:15;;;;;;;4.95;2.15;;;3.40;92.20;;;;;;5056969;28;20466;-79
2024/01/29 00:26:41;;;;;;;5.18;2.60;;;3.60;92.10;;;;;;5053310;28;20119;-80
2024/01/29 00:29:07;;;;;;;4.35;2.20;;;3.50;91.90;;;;;;5053867;28;20544;-79
2024/01/29 00:31:33;;;;;;;6.50;2.30;;;3.50;92.00;;;;;;5051439;28;20041;-79
2024/01/29 00:33:59;;;;;;;6.32;2.80;;;3.50;92.00;;;;;;5051244;28;20041;-79
2024/01/29 00:36:24;;;;;;;5.70;2.78;;;3.40;92.20;;;;;;5053418;28;20036;-80
2024/01/29 00:38:50;;;;;;;4.82;2.20;;;3.30;92.20;;;;;;5054941;28;20178;-80
2024/01/29 00:41:16;;;;;;;4.32;2.03;;;3.50;92.00;;;;;;5052656;28;20048;-80
2024/01/29 00:43:41;;;;;;;4.78;2.38;;;3.40;92.20;;;;;;5049133;28;20045;-79
2024/01/29 00:46:07;;;;;;;3.65;2.13;;;3.30;92.20;;;;;;5047982;28;20068;-79
2024/01/29 00:48:33;;;;;;;4.43;2.30;;;3.40;92.00;;;;;;5052161;28;20029;-79
2024/01/29 00:51:01;;;;;;;4.78;2.58;;;3.40;92.10;;;;;;5051577;28;20098;-80
2024/01/29 00:53:26;;;;;;;5.22;2.35;;;3.40;92.10;;;;;;5052564;28;20051;-80
2024/01/29 00:55:53;;;;;;;6.13;3.00;;;3.50;92.10;;;;;;5050068;28;20047;-80
2024/01/29 00:58:20;;;;;;;6.85;3.17;;;3.40;92.10;;;;;;5051672;28;20371;-79
2024/01/29 01:00:47;;;;;;;5.68;2.65;;;3.30;92.10;;;;;;5045643;28;20037;-80
2024/01/29 01:03:13;;;;;;;4.60;2.13;;;3.40;92.10;;;;;;5051744;28;20032;-80
2024/01/29 01:05:39;;;;;;;6.32;2.90;;;3.20;92.10;;;;;;5050789;28;20508;-80
2024/01/29 01:08:05;;;;;;;54.55;42.88;;;3.30;92.00;;;;;;5050008;28;20086;-77
2024/01/29 01:10:31;;;;;;;9.90;6.82;;;3.20;92.60;;;;;;5054352;28;20127;-78
2024/01/29 01:12:56;;;;;;;5.55;2.60;;;3.00;92.50;;;;;;5050452;28;20036;-78
2024/01/29 01:15:22;;;;;;;5.03;2.25;;;3.00;92.60;;;;;;5054395;28;20059;-78
2024/01/29 01:17:48;;;;;;;4.28;1.92;;;2.70;93.10;;;;;;5049763;28;20393;-80
2024/01/29 01:20:14;;;;;;;5.60;2.47;;;2.60;93.30;;;;;;5051402;28;20072;-77
2024/01/29 01:22:39;;;;;;;6.13;2.30;;;2.50;93.60;;;;;;5052123;28;20032;-79
2024/01/29 01:25:06;;;;;;;4.40;2.38;;;2.50;93.50;;;;;;5051334;28;20037;-79
2024/01/29 01:27:32;;;;;;;4.32;2.35;;;2.60;93.30;;;;;;5051585;28;20569;-77
2024/01/29 01:29:59;;;;;;;4.10;2.08;;;2.60;93.40;;;;;;5050475;28;20060;-77
2024/01/29 01:32:24;;;;;;;5.47;2.35;;;2.70;93.00;;;;;;5051532;28;20447;-77
2024/01/29 01:34:50;;;;;;;5.80;2.67;;;2.80;92.90;;;;;;5051297;28;20040;-77
2024/01/29 01:37:16;;;;;;;6.57;2.42;;;2.90;92.70;;;;;;5051381;28;20123;-77
2024/01/29 01:39:41;;;;;;;4.00;2.08;;;2.60;93.40;;;;;;5049498;28;20398;-77
2024/01/29 01:42:08;;;;;;;3.47;1.75;;;2.50;93.40;;;;;;5050996;28;20036;-79
2024/01/29 01:44:34;;;;;;;5.47;2.03;;;2.60;93.30;;;;;;5053285;28;20075;-77
2024/01/29 01:47:00;;;;;;;3.58;1.70;;;2.60;93.50;;;;;;5047972;28;20094;-79
2024/01/29 01:49:26;;;;;;;4.72;2.20;;;2.50;93.50;;;;;;5053916;28;20037;-77
2024/01/29 01:51:52;;;;;;;3.72;1.70;;;2.50;93.30;;;;;;5050546;28;20252;-77
2024/01/29 01:54:18;;;;;;;5.93;2.28;;;2.70;93.10;;;;;;5053248;28;21354;-77
2024/01/29 01:56:44;;;;;;;5.50;2.15;;;2.60;93.10;;;;;;5051576;28;20025;-77
2024/01/29 01:59:11;;;;;;;3.70;1.88;;;2.50;93.30;;;;;;5045395;28;20032;-79
2024/01/29 02:01:38;;;;;;;4.40;1.88;;;2.40;93.60;;;;;;5053683;28;20132;-79
2024/01/29 02:04:05;;;;;;;5.35;2.10;;;2.10;94.00;;;;;;5050189;28;20413;-79
2024/01/29 02:06:31;;;;;;;4.18;2.17;;;2.20;94.00;;;;;;5051948;28;20512;-79
2024/01/29 02:08:58;;;;;;;5.80;2.67;;;2.20;93.80;;;;;;5050817;28;20084;-79
2024/01/29 02:11:24;;;;;;;4.32;2.20;;;2.40;93.50;;;;;;5052938;28;20060;-79
2024/01/29 02:13:50;;;;;;;4.60;1.98;;;2.40;93.70;;;;;;5049848;28;20036;-77
2024/01/29 02:16:15;;;;;;;6.35;2.35;;;2.50;93.40;;;;;;5054385;28;20065;-77
2024/01/29 02:18:41;;;;;;;4.85;2.35;;;2.60;93.40;;;;;;5054096;28;20067;-77
2024/01/29 02:21:07;;;;;;;5.20;2.03;;;2.60;93.10;;;;;;5048929;28;20036;-77
2024/01/29 02:23:33;;;;;;;5.38;2.38;;;2.60;93.20;;;;;;5053979;28;20032;-79
2024/01/29 02:25:58;;;;;;;4.97;2.20;;;2.50;93.20;;;;;;5055031;28;20028;-79
2024/01/29 02:28:25;;;;;;;3.75;1.55;;;2.20;93.70;;;;;;5056537;28;20561;-77
2024/01/29 02:30:51;;;;;;;5.00;2.55;;;2.40;93.60;;;;;;5054223;28;20029;-77
2024/01/29 02:33:17;;;;;;;5.32;2.50;;;2.20;93.90;;;;;;5056648;28;20674;-79
2024/01/29 02:35:45;;;;;;;5.15;2.22;;;2.40;93.40;;;;;;5054156;28;20123;-79
2024/01/29 02:38:11;;;;;;;3.55;2.10;;;2.40;93.30;;;;;;5056964;28;20038;-79
2024/01/29 02:40:37;;;;;;;5.60;2.55;;;2.30;93.40;;;;;;5055313;28;20036;-79
2024/01/29 02:43:03;;;;;;;9.10;2.45;;;2.30;93.60;;;;;;5052416;28;20025;-79
2024/01/29 02:45:29;;;;;;;3.53;1.95;;;2.50;93.30;;;;;;5055107;28;20028;-79
2024/01/29 02:47:54;;;;;;;5.30;2.33;;;2.50;93.30;;;;;;5055473;28;20502;-79
2024/01/29 02:50:22;;;;;;;7.55;2.72;;;2.30;93.40;;;;;;5053049;28;20032;-79
2024/01/29 02:52:48;;;;;;;4.30;2.20;;;2.30;93.40;;;;;;5054414;28;20032;-79
2024/01/29 02:55:14;;;;;;;3.92;1.83;;;2.30;93.30;;;;;;5055563;28;20033;-79
2024/01/29 02:57:40;;;;;;;5.28;2.53;;;2.40;93.20;;;;;;5055288;28;20036;-79
2024/01/29 03:00:06;;;;;;;5.63;2.40;;;2.30;93.30;;;;;;5054639;28;20054;-79
2024/01/29 03:02:31;;;;;;;4.10;2.33;;;2.30;93.30;;;;;;5036265;28;20095;-79
2024/01/29 03:04:57;;;;;;;4.30;2.22;;;2.40;93.10;;;;;;5052894;28;20041;-79
2024/01/29 03:07:23;;;;;;;5.10;2.17;;;2.60;92.70;;;;;;5056345;28;20032;-79
2024/01/29 03:09:48;;;;;;;5.43;1.98;;;2.60;92.60;;;;;;5054988;28;20056;-79
2024/01/29 03:12:14;;;;;;;4.22;2.30;;;2.50;92.80;;;;;;5055975;28;20040;-79
2024/01/29 03:14:41;;;;;;;4.10;1.65;;;2.40;93.00;;;;;;5052760;28;20478;-79
2024/01/29 03:17:07;;;;;;;4.65;1.85;;;2.30;93.00;;;;;;5053049;28;20040;-79
2024/01/29 03:19:33;;;;;;;5.57;2.00;;;2.20;93.40;;;;;;5038524;28;20047;-79
2024/01/29 03:21:58;;;;;;;5.05;2.28;;;1.90;93.90;;;;;;5056502;28;20036;-79
2024/01/29 03:24:24;;;;;;;4.07;1.70;;;1.90;93.80;;;;;;5038080;28;20135;-79
2024/01/29 03:26:50;;;;;;;3.28;1.50;;;1.80;93.90;;;;;;5052544;28;20028;-79
2024/01/29 03:29:15;;;;;;;4.50;2.35;;;1.70;94.20;;;;;;5055877;28;20460;-79
2024/01/29 03:31:41;;;;;;;5.45;2.03;;;1.70;94.50;;;;;;5055651;28;20075;-79
2024/01/29 03:34:07;;;;;;;3.83;1.80;;;1.60;94.30;;;;;;5053725;28;20043;-79
2024/01/29 03:36:32;;;;;;;3.70;1.90;;;1.90;94.00;;;;;;5055669;28;20040;-79
2024/01/29 03:38:58;;;;;;;7.03;2.25;;;2.10;93.40;;;;;;5051868;28;20074;-79
2024/01/29 03:41:24;;;;;;;4.55;1.95;;;2.10;93.30;;;;;;5055695;28;20098;-77
2024/01/29 03:43:49;;;;;;;4.60;1.95;;;2.10;93.50;;;;;;5055922;28;20032;-77
2024/01/29 03:46:15;;;;;;;4.50;1.88;;;2.10;93.50;;;;;;5055721;28;20017;-79
2024/01/29 03:48:41;;;;;;;3.72;1.90;;;2.00;93.50;;;;;;5057003;28;20110;-79
2024/01/29 03:51:06;;;;;;;5.32;1.95;;;1.80;94.00;;;;;;5057079;28;20494;-79
2024/01/29 03:53:32;;;;;;;7.13;1.55;;;1.70;94.10;;;;;;5054054;28;20036;-79
2024/01/29 03:55:58;;;;;;;3.45;1.80;;;2.00;93.60;;;;;;5055176;28;20067;-79
2024/01/29 03:58:23;;;;;;;5.43;1.50;;;2.10;93.30;;;;;;5056613;28;20036;-79
2024/01/29 04:00:49;;;;;;;4.13;1.58;;;2.10;93.40;;;;;;5053893;28;20049;-77
2024/01/29 04:03:15;;;;;;;5.03;1.92;;;2.20;93.20;;;;;;5051075;28;20505;-79
2024/01/29 04:05:44;;;;;;;3.47;1.65;;;2.10;93.00;;;;;;5050923;28;20068;-77
2024/01/29 04:08:09;;;;;;;4.40;1.88;;;2.20;92.90;;;;;;5048350;28;21997;-77
2024/01/29 04:10:35;;;;;;;3.28;1.38;;;2.10;93.00;;;;;;5046864;28;20454;-79
2024/01/29 04:13:01;;;;;;;2.97;1.70;;;2.00;93.20;;;;;;5050828;28;20060;-77
2024/01/29 04:15:26;;;;;;;4.07;1.45;;;1.70;93.70;;;;;;5044629;28;20060;-77
2024/01/29 04:17:52;;;;;;;3.30;1.70;;;1.80;93.80;;;;;;5045207;28;20043;-79
2024/01/29 04:20:18;;;;;;;3.25;1.40;;;1.90;93.80;;;;;;5047078;28;20094;-79
2024/01/29 04:22:43;;;;;;;5.47;1.50;;;1.80;93.60;;;;;;5043966;28;20041;-79
2024/01/29 04:25:09;;;;;;;4.00;1.30;;;1.90;93.60;;;;;;5045677;28;20043;-79
2024/01/29 04:27:35;;;;;;;3.78;1.85;;;1.90;93.40;;;;;;5046959;28;20089;-79
2024/01/29 04:30:02;;;;;;;3.63;1.67;;;1.80;93.60;;;;;;5045429;28;20123;-78
2024/01/29 04:32:28;;;;;;;3.20;1.40;;;1.70;93.70;;;;;;5047311;28;20119;-79
2024/01/29 04:34:54;;;;;;;3.60;1.60;;;1.60;94.20;;;;;;5047206;28;20036;-79
2024/01/29 04:37:19;;;;;;;4.35;1.52;;;1.50;94.20;;;;;;5046089;28;20852;-79
2024/01/29 04:39:45;;;;;;;3.63;1.73;;;1.80;93.60;;;;;;5044796;28;20060;-78
2024/01/29 04:42:12;;;;;;;4.82;1.83;;;1.90;93.30;;;;;;5046649;28;20149;-77
2024/01/29 04:44:37;;;;;;;3.00;1.38;;;1.90;93.20;;;;;;5043482;28;22261;-79
2024/01/29 04:47:03;;;;;;;3.38;1.38;;;2.00;93.10;;;;;;5046793;28;20987;-77
2024/01/29 04:49:29;;;;;;;2.65;1.45;;;2.00;92.90;;;;;;5042061;28;20033;-78
2024/01/29 04:51:54;;;;;;;4.65;1.70;;;2.00;92.90;;;;;;5048075;28;20036;-77
2024/01/29 04:54:20;;;;;;;4.57;1.77;;;1.90;93.00;;;;;;5044652;28;20562;-77
2024/01/29 04:56:46;;;;;;;4.10;1.52;;;1.90;93.20;;;;;;5045409;28;20024;-79
2024/01/29 04:59:12;;;;;;;6.85;1.80;;;1.80;93.30;;;;;;5045842;28;20059;-79
2024/01/29 05:01:37;;;;;;;3.75;1.80;;;1.70;93.40;;;;;;5045310;28;20044;-78
2024/01/29 05:04:03;;;;;;;3.63;1.73;;;1.80;93.40;;;;;;5046657;28;20979;-79
2024/01/29 05:06:29;;;;;;;4.93;1.90;;;1.80;93.40;;;;;;5045532;28;20113;-79
2024/01/29 05:08:55;;;;;;;4.32;1.52;;;1.90;93.10;;;;;;5047043;28;20606;-79
2024/01/29 05:11:21;;;;;;;4.45;1.88;;;1.90;93.10;;;;;;5046289;28;22636;-79
2024/01/29 05:13:46;;;;;;;3.38;1.55;;;1.70;93.30;;;;;;5045023;28;20041;-79
2024/01/29 05:16:12;;;;;;;4.10;1.58;;;1.70;93.50;;;;;;5046237;28;20036;-79
2024/01/29 05:18:38;;;;;;;5.05;1.85;;;1.70;93.50;;;;;;5043124;28;20029;-79
2024/01/29 05:21:04;;;;;;;3.72;1.67;;;1.80;93.40;;;;;;5045525;28;20169;-77
2024/01/29 05:23:30;;;;;;;7.88;2.20;;;1.80;93.60;;;;;;5046790;28;20124;-79
2024/01/29 05:25:56;;;;;;;4.05;1.95;;;1.90;93.60;;;;;;5046729;28;20040;-77
2024/01/29 05:28:22;;;;;;;4.93;1.88;;;1.80;93.70;;;;;;5045172;28;20367;-77
2024/01/29 05:30:50;;;;;;;5.28;1.70;;;1.60;94.20;;;;;;5045145;28;20497;-79
2024/01/29 05:33:16;;;;;;;4.85;1.92;;;1.50;94.00;;;;;;5046079;28;20025;-79
2024/01/29 05:35:42;;;;;;;4.35;2.10;;;1.30;94.20;;;;;;5046147;28;20063;-76
2024/01/29 05:38:07;;;;;;;5.82;2.67;;;1.50;94.00;;;;;;5047237;28;20090;-79
2024/01/29 05:40:33;;;;;;;7.05;2.55;;;1.30;94.20;;;;;;5046468;28;20040;-77
2024/01/29 05:42:59;;;;;;;4.15;2.05;;;1.30;94.20;;;;;;5043848;28;20730;-77
2024/01/29 05:45:24;;;;;;;3.85;1.80;;;1.20;94.50;;;;;;5045356;28;20036;-77
2024/01/29 05:47:50;;;;;;;4.45;2.20;;;1.30;94.50;;;;;;5045474;28;20044;-79
2024/01/29 05:50:16;;;;;;;5.35;1.70;;;1.30;94.80;;;;;;5045703;28;20161;-76
2024/01/29 05:52:42;;;;;;;3.75;1.70;;;1.40;94.40;;;;;;5046402;28;20059;-77
2024/01/29 05:55:08;;;;;;;4.10;1.58;;;1.30;94.70;;;;;;5044973;28;20032;-77
2024/01/29 05:57:33;;;;;;;3.47;1.65;;;1.50;94.10;;;;;;5048652;28;20289;-77
2024/01/29 05:59:59;;;;;;;3.85;1.50;;;1.60;93.90;;;;;;5050177;28;20098;-78
2024/01/29 06:02:25;;;;;;;3.67;1.90;;;1.50;94.10;;;;;;5047211;28;20548;-77
2024/01/29 06:04:51;;;;;;;3.72;1.73;;;1.30;94.50;;;;;;5051974;28;20136;-77
2024/01/29 06:07:16;;;;;;;4.72;1.92;;;1.20;94.70;;;;;;5050374;28;20028;-77
2024/01/29 06:09:42;;;;;;;3.80;1.75;;;1.20;95.00;;;;;;5052777;28;20059;-77
2024/01/29 06:12:08;;;;;;;3.38;1.42;;;1.30;94.90;;;;;;5052360;28;20036;-77
2024/01/29 06:14:33;;;;;;;6.60;2.08;;;1.30;94.50;;;;;;5050700;28;20109;-77
2024/01/29 06:16:59;;;;;;;4.55;2.05;;;1.30;94.70;;;;;;5054710;28;20059;-76
2024/01/29 06:19:25;;;;;;;4.40;1.80;;;1.20;94.80;;;;;;5059006;28;20039;-80
2024/01/29 06:21:51;;;;;;;4.07;1.80;;;1.10;95.10;;;;;;5051052;28;20075;-80
2024/01/29 06:24:16;;;;;;;5.43;2.47;;;1.10;95.40;;;;;;5046972;28;20081;-77
2024/01/29 06:26:43;;;;;;;7.05;2.60;;;1.20;95.60;;;;;;5050637;28;20047;-77
2024/01/29 06:29:09;;;;;;;4.95;2.13;;;1.10;95.60;;;;;;5052231;28;20062;-77
2024/01/29 06:31:41;;;;;;;4.35;1.70;;;1.10;95.30;;;;;;5050567;28;20037;-77
2024/01/29 06:34:07;;;;;;;3.33;1.55;;;1.10;95.10;;;;;;5057855;28;20032;-76
2024/01/29 06:36:33;;;;;;;4.28;1.50;;;1.10;95.00;;;;;;5051650;28;20036;-77
2024/01/29 06:38:59;;;;;;;2.70;1.20;;;1.10;94.90;;;;;;5048952;28;20145;-77
2024/01/29 06:41:27;;;;;;;3.85;1.40;;;1.30;94.50;;;;;;5049917;28;20835;-76
2024/01/29 06:43:54;;;;;;;5.10;1.50;;;1.30;94.40;;;;;;5050381;28;20044;-77
2024/01/29 06:46:20;;;;;;;2.75;1.30;;;1.40;94.60;;;;;;5047897;28;20041;-77
2024/01/29 06:48:46;;;;;;;4.65;1.40;;;1.40;94.50;;;;;;5048767;28;20085;-77
2024/01/29 06:51:14;;;;;;;2.97;1.58;;;1.50;94.30;;;;;;5049674;28;20033;-78
2024/01/29 06:53:40;;;;;;;3.00;1.40;;;1.50;94.10;;;;;;5047455;28;20068;-80
2024/01/29 06:56:07;;;;;;;5.30;1.58;;;1.50;94.80;;;;;;5049837;28;20123;-79
2024/01/29 06:58:36;;;;;;;3.30;1.40;;;1.30;95.00;;;;;;5048906;28;20059;-77
2024/01/29 07:01:02;;;;;;;3.13;1.77;;;1.20;94.70;;;;;;5049052;28;20040;-79
2024/01/29 07:03:28;;;;;;;4.35;1.70;;;1.30;94.40;;;;;;5050096;28;20032;-79
2024/01/29 07:05:54;;;;;;;4.93;1.88;;;1.30;94.80;;;;;;5048791;28;20481;-79
2024/01/29 07:08:20;;;;;;;4.45;2.22;;;1.40;94.50;;;;;;5048350;28;20052;-79
2024/01/29 07:10:46;;;;;;;3.45;1.55;;;1.30;94.60;;;;;;5050837;28;20036;-79
2024/01/29 07:13:12;;;;;;;3.85;1.40;;;1.30;94.60;;;;;;5047851;28;20082;-79
2024/01/29 07:15:38;;;;;;;3.20;1.52;;;1.30;95.00;;;;;;5048730;28;20738;-79
2024/01/29 07:18:04;;;;;;;2.55;1.33;;;1.30;95.10;;;;;;5046010;28;20033;-79
2024/01/29 07:20:38;;;;;;;3.42;1.48;;;1.20;94.90;;;;;;5048039;28;20067;-79
2024/01/29 07:23:05;;;;;;;5.00;1.90;;;1.20;95.60;;;;;;5051180;28;20125;-80
2024/01/29 07:25:31;;;;;;;4.63;1.75;;;1.00;95.10;;;;;;5053165;28;20033;-80
2024/01/29 07:27:59;;;;;;;3.92;1.75;;;1.10;95.10;;;;;;5048758;28;20032;-80
2024/01/29 07:30:26;;;;;;;4.63;2.17;;;1.70;97.80;;;;;;5048072;28;20122;-77
2024/01/29 07:32:51;;;;;;;7.03;2.58;;;1.20;95.20;;;;;;5049395;28;20032;-77
2024/01/29 07:35:17;;;;;;;6.05;2.30;;;1.20;95.40;;;;;;5046960;28;20866;-76
2024/01/29 07:37:43;;;;;;;4.88;2.25;;;1.30;95.40;;;;;;5048238;28;20036;-77
2024/01/29 07:40:09;;;;;;;6.40;1.98;;;1.40;95.70;;;;;;5045483;28;20041;-77
2024/01/29 07:42:35;;;;;;;3.53;1.52;;;1.30;95.90;;;;;;5043571;28;20978;-79
2024/01/29 07:45:01;;;;;;;4.80;1.83;;;1.30;95.30;;;;;;5048655;28;20040;-79
2024/01/29 07:47:27;;;;;;;4.18;1.23;;;1.40;94.70;;;;;;5052160;28;20621;-79
2024/01/29 07:49:52;;;;;;;4.30;1.65;;;1.40;94.90;;;;;;5049453;28;20123;-78
2024/01/29 07:52:18;;;;;;;4.75;1.55;;;1.50;94.70;;;;;;5047914;28;20056;-79
2024/01/29 07:54:44;;;;;;;4.03;1.77;;;1.50;95.00;;;;;;5049319;28;20162;-79
2024/01/29 07:57:09;;;;;;;4.20;1.77;;;1.60;95.70;;;;;;5047143;28;20101;-79
2024/01/29 07:59:35;;;;;;;6.82;3.30;;;1.40;95.80;;;;;;5043376;28;20033;-79
2024/01/29 08:02:01;;;;;;;5.68;2.83;;;1.20;96.20;;;;;;5043293;28;20056;-78
2024/01/29 08:04:26;;;;;;;7.65;2.72;;;1.20;95.30;;;;;;5041648;28;20039;-79
2024/01/29 08:06:52;;;;;;;5.18;2.63;;;1.20;95.50;;;;;;5049164;28;20043;-78
2024/01/29 08:09:18;;;;;;;3.65;2.05;;;1.20;95.70;;;;;;5048789;28;20135;-79
2024/01/29 08:11:44;;;;;;;6.10;2.35;;;1.20;96.10;;;;;;5048559;28;20147;-79
2024/01/29 08:14:10;;;;;;;3.00;1.52;;;1.10;96.60;;;;;;5043431;28;20033;-79
2024/01/29 08:16:36;;;;;;;4.00;1.88;;;1.20;96.20;;;;;;5047695;28;20044;-76
2024/01/29 08:19:02;;;;;;;4.13;1.67;;;1.30;95.60;;;;;;5046055;28;20041;-79
2024/01/29 08:21:28;;;;;;;4.95;1.60;;;1.30;95.60;;;;;;5047563;28;21012;-79
2024/01/29 08:23:55;;;;;;;5.63;1.73;;;1.30;95.60;;;;;;5048758;28;20029;-79
2024/01/29 08:26:21;;;;;;;3.67;1.73;;;1.30;95.60;;;;;;5047370;28;20021;-79
2024/01/29 08:28:46;;;;;;;9.82;1.77;;;1.30;96.00;;;;;;5045690;28;20111;-79
2024/01/29 08:31:12;;;;;;;4.22;1.58;;;1.20;96.40;;;;;;5048839;28;20033;-79
2024/01/29 08:33:38;;;;;;;5.03;1.98;;;1.20;96.30;;;;;;5044620;28;20036;-79
2024/01/29 08:36:04;;;;;;;4.25;1.90;;;1.20;96.80;;;;;;5044625;28;20496;-78
2024/01/29 08:38:29;;;;;;;3.00;1.73;;;1.10;95.90;;;;;;5047182;28;20040;-78
2024/01/29 08:40:55;;;;;;;4.35;1.95;;;1.20;95.50;;;;;;5041548;28;20037;-79
2024/01/29 08:43:21;;;;;;;3.83;1.63;;;1.20;95.90;;;;;;5046692;28;20543;-79
2024/01/29 08:45:46;;;;;;;3.03;1.40;;;1.20;96.10;;;;;;5048901;28;20394;-77
2024/01/29 08:48:12;;;;;;;4.07;1.63;;;1.20;96.20;;;;;;5043846;28;20036;-76
2024/01/29 08:50:38;;;;;;;3.92;2.03;;;1.20;96.30;;;;;;5046163;28;20119;-79
2024/01/29 08:53:04;;;;;;;3.88;1.60;;;1.30;96.50;;;;;;5046700;28;20051;-77
2024/01/29 08:55:33;;;;;;;3.72;1.60;;;1.40;96.00;;;;;;5045947;28;20044;-79
2024/01/29 08:57:58;;;;;;;3.40;1.83;;;1.40;96.50;;;;;;5046459;28;20388;-76
2024/01/29 09:00:24;;;;;;;6.70;1.48;;;1.40;96.20;;;;;;5047612;28;20050;-79
2024/01/29 09:02:50;;;;;;;5.07;1.58;;;1.50;95.90;;;;;;5046563;28;20029;-79
2024/01/29 09:05:16;;;;;;;3.38;1.60;;;1.50;95.70;;;;;;5045557;28;20032;-79
2024/01/29 09:07:42;;;;;;;4.18;1.95;;;1.50;95.90;;;;;;5047276;28;20506;-79
2024/01/29 09:10:08;;;;;;;3.80;1.80;;;1.30;96.50;;;;;;5045866;28;20036;-78
2024/01/29 09:12:34;;;;;;;3.90;1.90;;;1.20;96.10;;;;;;5045586;28;20035;-78
2024/01/29 09:15:02;;;;;;;3.92;1.88;;;1.30;95.70;;;;;;5042358;28;20025;-78
2024/01/29 09:17:28;;;;;;;3.85;1.85;;;1.40;96.20;;;;;;5048975;28;20676;-79
2024/01/29 09:19:54;;;;;;;5.53;2.35;;;1.60;96.00;;;;;;5050048;28;20040;-79
2024/01/29 09:22:19;;;;;;;3.30;1.80;;;1.60;96.00;;;;;;5050569;28;20489;-78
2024/01/29 09:24:46;;;;;;;3.90;1.88;;;1.60;95.50;;;;;;5050334;28;20737;-78
2024/01/29 09:27:12;;;;;;;3.13;1.48;;;1.70;95.90;;;;;;5050209;28;20111;-76
2024/01/29 09:29:38;;;;;;;4.32;2.10;;;1.80;96.10;;;;;;5050913;28;20040;-78
2024/01/29 09:32:04;;;;;;;4.40;1.58;;;1.80;95.60;;;;;;5050244;28;21132;-79
2024/01/29 09:34:30;;;;;;;5.38;1.95;;;1.90;95.20;;;;;;5049943;28;20036;-79
2024/01/29 09:36:56;;;;;;;3.45;1.80;;;1.70;96.10;;;;;;5051408;28;20047;-79
2024/01/29 09:39:24;;;;;;;3.13;1.40;;;1.80;95.60;;;;;;5050558;28;21750;-79
2024/01/29 09:41:52;;;;;;;4.35;2.00;;;2.00;95.30;;;;;;5049685;28;20052;-78
2024/01/29 09:44:17;;;;;;;3.92;1.70;;;2.10;95.00;;;;;;5050851;28;20492;-78
2024/01/29 09:46:46;;;;;;;4.40;1.58;;;2.00;94.40;;;;;;5050447;28;20032;-78
2024/01/29 09:49:12;;;;;;;4.45;1.67;;;2.00;94.50;;;;;;5049895;28;21600;-79
2024/01/29 09:51:39;;;;;;;7.90;2.03;;;2.10;94.70;;;;;;5047550;28;20064;-79
2024/01/29 09:54:05;;;;;;;3.88;1.63;;;2.20;94.10;;;;;;5049506;28;20131;-79
2024/01/29 09:56:31;;;;;;;4.68;1.90;;;2.20;94.30;;;;;;5047463;28;20472;-79
2024/01/29 09:58:57;;;;;;;6.80;2.00;;;2.20;94.30;;;;;;5045020;28;20051;-78
2024/01/29 10:01:23;;;;;;;4.03;1.75;;;2.30;94.10;;;;;;5048897;28;20050;-78
2024/01/29 10:03:49;;;;;;;5.57;2.05;;;2.40;94.00;;;;;;5049231;28;20063;-79
2024/01/29 10:06:16;;;;;;;4.30;2.00;;;2.40;94.60;;;;;;5049839;28;20113;-78
2024/01/29 10:08:42;;;;;;;3.40;1.52;;;2.40;94.00;;;;;;5048305;28;20145;-79
2024/01/29 10:11:08;;;;;;;3.20;1.45;;;2.70;94.00;;;;;;5048115;28;20489;-79
2024/01/29 10:13:34;;;;;;;4.78;2.10;;;2.90;93.60;;;;;;5050140;28;20062;-76
2024/01/29 10:16:00;;;;;;;5.35;1.90;;;3.10;92.90;;;;;;5044235;28;20646;-79
2024/01/29 10:18:26;;;;;;;3.17;1.73;;;3.40;92.30;;;;;;5047686;28;20032;-78
2024/01/29 10:21:06;;;;;;;3.88;1.88;;;3.60;91.90;;;;;;5049893;28;20052;-78
2024/01/29 10:23:32;;;;;;;5.75;2.33;;;3.80;91.70;;;;;;5049061;28;20452;-79
2024/01/29 10:25:59;;;;;;;5.47;2.75;;;3.80;93.00;;;;;;5047784;28;20025;-79
2024/01/29 10:28:26;;;;;;;7.68;3.25;;;3.80;94.30;;;;;;5044436;28;20040;-78
2024/01/29 10:30:54;;;;;;;6.78;3.20;;;3.70;94.70;;;;;;5048391;28;20405;-78
2024/01/29 10:33:19;;;;;;;5.30;2.95;;;3.90;94.30;;;;;;5046956;28;20032;-78
2024/01/29 10:35:45;;;;;;;6.68;3.10;;;3.80;93.90;;;;;;5044597;28;20525;-78
2024/01/29 10:38:14;;;;;;;8.25;2.72;;;3.90;93.90;;;;;;5045843;28;20469;-77
2024/01/29 10:40:41;;;;;;;6.97;2.58;;;4.00;93.70;;;;;;5048536;28;20043;-79
2024/01/29 10:43:15;;;;;;;5.25;3.08;;;4.10;93.30;;;;;;5033321;28;20086;-76
2024/01/29 10:45:45;;;;;;;4.60;2.40;;;4.10;93.30;;;;;;5048543;28;20032;-77
2024/01/29 10:48:16;;;;;;;4.40;2.17;;;4.30;93.10;;;;;;5050599;28;20675;-77
2024/01/29 10:50:42;;;;;;;4.25;2.25;;;4.40;92.90;;;;;;5046666;28;20033;-77
2024/01/29 10:53:11;;;;;;;4.28;2.05;;;4.50;92.60;;;;;;5050142;28;20063;-77
2024/01/29 10:55:38;;;;;;;3.97;1.95;;;4.60;92.60;;;;;;5050913;28;20041;-76
2024/01/29 10:58:05;;;;;;;4.70;2.45;;;4.60;92.70;;;;;;5051420;28;20236;-77
2024/01/29 11:00:33;;;;;;;4.18;1.90;;;4.60;92.20;;;;;;5052533;28;20585;-77
2024/01/29 11:02:59;;;;;;;6.18;2.38;;;4.70;91.40;;;;;;5053334;28;20036;-77
2024/01/29 11:05:26;;;;;;;6.80;3.70;;;4.80;91.50;;;;;;5052486;28;20107;-77
2024/01/29 11:07:55;;;;;;;6.05;2.78;;;4.80;92.40;;;;;;5052650;28;20028;-76
2024/01/29 11:10:22;;;;;;;5.03;2.70;;;5.00;91.90;;;;;;5054013;28;20551;-79
2024/01/29 11:12:54;;;;;;;5.45;2.53;;;5.10;92.10;;;;;;5051868;28;20040;-79
2024/01/29 11:15:20;;;;;;;5.45;1.83;;;5.10;90.70;;;;;;5052028;28;20036;-79
2024/01/29 11:17:46;;;;;;;4.68;1.92;;;5.20;90.20;;;;;;5054048;28;20939;-79
2024/01/29 11:20:14;;;;;;;5.55;1.85;;;5.30;90.30;;;;;;5052319;28;20131;-79
2024/01/29 11:22:52;;;;;;;12.90;11.02;;;5.30;89.80;;;;;;5046624;28;20090;-76
2024/01/29 11:25:19;;;;;;;7.93;5.80;;;5.50;90.30;;;;;;5051934;28;20032;-77
2024/01/29 11:27:46;;;;;;;8.90;5.93;;;5.60;90.10;;;;;;5047976;28;20032;-79
2024/01/29 11:30:16;;;;;;;6.93;3.97;;;5.70;90.40;;;;;;5050525;28;20036;-79
2024/01/29 11:32:42;;;;;;;6.20;3.03;;;5.80;90.60;;;;;;5051463;28;20036;-79
2024/01/29 11:35:19;;;;;;;6.32;2.70;;;5.70;90.50;;;;;;5050572;28;20047;-79
2024/01/29 11:37:49;;;;;;;7.50;2.60;;;5.80;89.50;;;;;;5048379;28;20500;-79
2024/01/29 11:40:41;;;;;;;6.13;2.90;;;5.80;89.50;;;;;;5045837;28;20036;-77
2024/01/29 11:43:17;;;;;;;5.55;2.38;;;5.90;89.70;;;;;;5051169;28;20131;-77
2024/01/29 11:45:50;;;;;;;4.57;2.42;;;6.10;90.40;;;;;;5050635;28;20086;-77
2024/01/29 11:48:18;;;;;;;4.70;2.30;;;6.10;89.60;;;;;;5050656;28;20047;-79
2024/01/29 11:50:46;;;;;;;5.50;2.28;;;6.10;90.00;;;;;;5050612;28;20032;-77
2024/01/29 11:53:14;;;;;;;5.40;2.55;;;6.20;89.80;;;;;;5044911;28;20040;-79
2024/01/29 11:55:44;;;;;;;5.93;2.40;;;6.20;88.90;;;;;;5049674;28;20033;-77
2024/01/29 11:58:14;;;;;;;3.67;1.92;;;6.20;88.00;;;;;;5051579;28;20036;-76
2024/01/29 12:00:44;;;;;;;5.78;2.50;;;6.50;89.10;;;;;;5049307;28;20435;-79
2024/01/29 12:03:12;;;;;;;8.15;4.03;;;6.70;87.80;;;;;;5049918;28;20036;-79
2024/01/29 12:05:38;;;;;;;7.28;3.30;;;6.90;87.70;;;;;;5046355;28;20031;-77
2024/01/29 12:08:11;;;;;;;6.45;4.85;;;7.00;87.50;;;;;;5048166;28;20044;-79
2024/01/29 12:10:37;;;;;;;5.07;3.60;;;7.20;87.50;;;;;;5049977;28;20115;-79
2024/01/29 12:13:03;;;;;;;7.57;3.47;;;7.30;88.10;;;;;;5049770;28;20305;-77
2024/01/29 12:15:28;;;;;;;5.13;2.33;;;7.30;87.40;;;;;;5051031;28;20156;-79
2024/01/29 12:17:54;;;;;;;5.38;2.83;;;7.10;87.30;;;;;;5045815;28;20078;-79
2024/01/29 12:20:20;;;;;;;4.63;2.55;;;7.20;88.00;;;;;;5049808;28;20048;-79
2024/01/29 12:22:46;;;;;;;6.60;3.20;;;7.50;87.50;;;;;;5050104;28;20113;-79
2024/01/29 12:25:12;;;;;;;5.22;2.67;;;7.50;87.30;;;;;;5042455;28;20666;-77
2024/01/29 12:27:40;;;;;;;6.93;3.30;;;7.50;87.50;;;;;;5049555;28;20035;-77
2024/01/29 12:30:10;;;;;;;8.35;4.40;;;7.40;86.50;;;;;;5046415;28;20029;-77
2024/01/29 12:32:39;;;;;;;7.18;4.25;;;7.40;87.30;;;;;;5049578;28;20036;-79
2024/01/29 12:35:22;;;;;;;6.50;3.17;;;7.50;87.20;;;;;;5050007;28;20039;-77
2024/01/29 12:37:48;;;;;;;8.45;3.08;;;7.60;86.30;;;;;;5045026;28;20044;-78
2024/01/29 12:40:15;;;;;;;3.92;2.15;;;7.60;86.60;;;;;;5050943;28;20591;-77
2024/01/29 12:42:41;;;;;;;4.40;2.10;;;7.50;85.80;;;;;;5047147;28;20036;-77
2024/01/29 12:45:17;;;;;;;5.03;1.77;;;7.60;86.80;;;;;;5050352;28;20040;-77
2024/01/29 12:47:42;;;;;;;4.80;2.30;;;7.70;86.40;;;;;;5048377;28;20028;-77
2024/01/29 12:50:08;;;;;;;4.63;1.60;;;7.70;86.30;;;;;;5046852;28;20032;-80
2024/01/29 12:52:34;;;;;;;4.63;2.22;;;7.70;85.90;;;;;;5048657;28;20029;-77
2024/01/29 12:54:59;;;;;;;4.80;1.92;;;7.70;86.60;;;;;;5050370;28;20060;-77